Time;durP1;ratioP1;P1;durP2;ratioP2;P2;SDS_P1;SDS_P2;PMS_P1;PMS_P2;Temp;Humidity;BMP_temperature;BMP_pressure;BME280_temperature;BME280_humidity;BME280_pressure;Samples;Min_cycle;Max_cycle;Signal;HPM_P1;HPM_P2
2021/03/15 00:01:02;;;;;;;7.47;4.50;;;23.50;44.30;;;;;;5074962;28;20071;-45
2021/03/15 00:03:30;;;;;;;7.30;4.60;;;23.50;44.30;;;;;;5074733;28;20040;-41
2021/03/15 00:05:59;;;;;;;7.80;5.00;;;23.50;44.20;;;;;;5075423;28;20058;-41
2021/03/15 00:08:27;;;;;;;6.47;4.30;;;23.50;44.20;;;;;;5074398;28;20412;-40
2021/03/15 00:10:55;;;;;;;6.97;4.20;;;23.50;44.30;;;;;;5073725;28;20048;-40
2021/03/15 00:13:22;;;;;;;8.13;4.65;;;23.50;44.20;;;;;;5073591;28;20135;-41
2021/03/15 00:15:51;;;;;;;6.97;4.53;;;23.50;44.30;;;;;;5074722;28;20076;-41
2021/03/15 00:18:18;;;;;;;6.22;4.10;;;23.50;44.30;;;;;;5074823;28;20056;-41
2021/03/15 00:20:46;;;;;;;8.10;4.22;;;23.50;44.30;;;;;;5073578;28;20041;-40
2021/03/15 00:23:13;;;;;;;5.32;3.88;;;23.50;44.30;;;;;;5073509;28;20123;-40
2021/03/15 00:25:40;;;;;;;6.95;4.15;;;23.50;44.30;;;;;;5073520;28;20040;-40
2021/03/15 00:28:07;;;;;;;6.38;4.55;;;23.50;44.30;;;;;;5073350;28;20049;-40
2021/03/15 00:30:34;;;;;;;5.93;4.13;;;23.50;44.30;;;;;;5070977;28;20052;-40
2021/03/15 00:33:01;;;;;;;7.80;4.25;;;23.40;44.20;;;;;;5074418;28;20045;-41
2021/03/15 00:35:28;;;;;;;6.72;4.50;;;23.50;44.30;;;;;;5075704;28;20124;-40
2021/03/15 00:37:55;;;;;;;5.05;4.10;;;23.50;44.90;;;;;;5071905;28;20412;-40
2021/03/15 00:40:22;;;;;;;5.55;4.30;;;23.50;44.30;;;;;;5075821;28;20079;-42
2021/03/15 00:42:51;;;;;;;6.43;4.13;;;23.40;44.20;;;;;;5074316;28;20080;-40
2021/03/15 00:45:23;;;;;;;5.70;3.65;;;23.40;44.20;;;;;;5071881;28;20496;-41
2021/03/15 00:47:51;;;;;;;6.68;4.10;;;23.50;44.30;;;;;;5074590;28;20098;-42
2021/03/15 00:50:25;;;;;;;5.93;4.18;;;23.50;44.30;;;;;;5074666;28;20048;-40
2021/03/15 00:52:52;;;;;;;5.68;3.80;;;23.40;44.20;;;;;;5075657;28;20416;-40
2021/03/15 00:55:20;;;;;;;5.68;3.85;;;23.40;44.20;;;;;;5074810;28;20045;-40
2021/03/15 00:57:47;;;;;;;6.18;3.72;;;23.40;44.20;;;;;;5075283;28;20057;-40
2021/03/15 01:00:18;;;;;;;6.55;4.40;;;23.50;44.30;;;;;;5073766;28;20198;-40
2021/03/15 01:02:45;;;;;;;5.18;4.10;;;23.50;44.30;;;;;;5074933;28;20044;-40
2021/03/15 01:05:13;;;;;;;5.68;4.05;;;23.40;44.20;;;;;;5073658;28;20047;-41
2021/03/15 01:07:40;;;;;;;6.40;4.60;;;23.40;44.20;;;;;;5073424;28;20044;-40
2021/03/15 01:10:10;;;;;;;5.13;3.63;;;23.40;44.20;;;;;;5074116;28;20051;-41
2021/03/15 01:12:37;;;;;;;5.82;4.22;;;23.40;44.20;;;;;;5074103;28;20048;-41
2021/03/15 01:15:10;;;;;;;6.00;3.88;;;23.40;44.20;;;;;;5073028;28;20044;-40
2021/03/15 01:17:37;;;;;;;4.82;3.80;;;23.40;44.20;;;;;;5075110;28;20050;-42
2021/03/15 01:20:07;;;;;;;5.63;3.67;;;23.40;44.20;;;;;;5073722;28;20415;-40
2021/03/15 01:22:34;;;;;;;6.13;4.05;;;23.40;44.20;;;;;;5072560;28;20416;-40
2021/03/15 01:25:02;;;;;;;6.32;4.10;;;23.40;44.30;;;;;;5073521;28;20045;-41
2021/03/15 01:27:28;;;;;;;5.25;3.90;;;23.40;44.20;;;;;;5073276;28;20551;-41
2021/03/15 01:29:55;;;;;;;7.10;4.40;;;23.40;44.20;;;;;;5073859;28;20049;-43
2021/03/15 01:32:23;;;;;;;5.88;4.00;;;23.40;44.30;;;;;;5072404;28;20191;-42
2021/03/15 01:34:49;;;;;;;5.82;3.83;;;23.40;44.20;;;;;;5072444;28;20048;-44
2021/03/15 01:37:16;;;;;;;5.30;3.75;;;23.40;44.20;;;;;;5072182;28;20044;-48
2021/03/15 01:39:43;;;;;;;6.53;3.90;;;23.40;44.20;;;;;;5072389;28;20416;-42
2021/03/15 01:42:10;;;;;;;7.65;3.95;;;23.40;44.20;;;;;;5073385;28;20037;-41
2021/03/15 01:44:36;;;;;;;6.07;4.38;;;23.40;44.20;;;;;;5074500;28;20045;-41
2021/03/15 01:47:04;;;;;;;5.50;3.72;;;23.40;44.20;;;;;;5053367;28;20151;-44
2021/03/15 01:49:30;;;;;;;5.38;3.78;;;23.40;44.20;;;;;;5059982;28;20451;-48
2021/03/15 01:51:57;;;;;;;5.45;3.95;;;23.40;44.20;;;;;;5072002;28;20123;-46
2021/03/15 01:54:25;;;;;;;6.13;3.92;;;23.30;44.20;;;;;;5073201;28;20048;-43
2021/03/15 01:56:52;;;;;;;5.55;3.63;;;23.40;44.20;;;;;;5072416;28;20049;-46
2021/03/15 01:59:20;;;;;;;5.43;3.53;;;23.40;44.30;;;;;;5072546;28;20049;-42
2021/03/15 02:01:47;;;;;;;5.32;3.67;;;23.30;44.10;;;;;;5072161;28;20408;-43
2021/03/15 02:04:18;;;;;;;5.68;3.53;;;23.30;44.10;;;;;;5051874;28;20045;-42
2021/03/15 02:06:45;;;;;;;4.45;3.78;;;23.30;44.10;;;;;;5067642;28;20059;-42
2021/03/15 02:09:13;;;;;;;5.53;3.85;;;23.30;44.10;;;;;;5072009;28;20048;-45
2021/03/15 02:11:50;;;;;;;5.45;4.15;;;23.30;44.10;;;;;;5073302;28;20044;-41
2021/03/15 02:14:45;;;;;;;5.75;3.80;;;23.30;44.20;;;;;;5071665;28;20062;-45
2021/03/15 02:17:21;;;;;;;4.53;3.58;;;23.30;44.20;;;;;;5071641;28;20416;-41
2021/03/15 02:20:09;;;;;;;6.75;3.53;;;23.30;44.20;;;;;;5073204;28;20484;-41
2021/03/15 02:22:45;;;;;;;5.50;3.80;;;23.30;44.20;;;;;;5072668;28;20500;-41
2021/03/15 02:25:33;;;;;;;5.38;3.92;;;23.30;44.20;;;;;;5072728;28;20427;-41
2021/03/15 02:28:12;;;;;;;5.40;3.70;;;23.30;44.20;;;;;;5071102;28;20048;-41
2021/03/15 02:31:04;;;;;;;5.63;4.05;;;23.30;44.20;;;;;;5070992;28;20067;-41
2021/03/15 02:34:08;;;;;;;6.50;4.03;;;23.30;44.20;;;;;;5070952;28;20131;-40
2021/03/15 02:36:38;;;;;;;4.43;3.67;;;23.30;44.20;;;;;;5072040;28;20045;-42
2021/03/15 02:39:11;;;;;;;5.38;3.65;;;23.30;44.80;;;;;;5070874;28;20278;-41
2021/03/15 02:41:42;;;;;;;4.97;3.65;;;23.30;44.20;;;;;;5070860;28;20131;-43
2021/03/15 02:44:10;;;;;;;6.00;3.70;;;23.30;44.20;;;;;;5070952;28;20049;-41
2021/03/15 02:46:40;;;;;;;5.78;4.03;;;23.30;44.20;;;;;;5072495;28;20040;-41
2021/03/15 02:49:12;;;;;;;4.82;3.42;;;23.30;44.20;;;;;;5072069;28;20098;-41
2021/03/15 02:51:41;;;;;;;4.75;3.72;;;23.30;44.20;;;;;;5071264;28;20133;-41
2021/03/15 02:54:11;;;;;;;5.13;3.40;;;23.30;44.20;;;;;;5070637;28;20049;-41
2021/03/15 02:56:44;;;;;;;5.47;3.42;;;23.30;44.20;;;;;;5071512;28;20045;-43
2021/03/15 02:59:14;;;;;;;4.97;3.58;;;23.30;44.20;;;;;;5054576;28;20036;-41
2021/03/15 03:01:43;;;;;;;4.90;3.70;;;23.30;44.20;;;;;;5071352;28;20053;-41
2021/03/15 03:04:11;;;;;;;4.47;3.22;;;23.30;44.20;;;;;;5071818;28;20484;-41
2021/03/15 03:06:41;;;;;;;5.45;3.78;;;23.30;44.20;;;;;;5070908;28;20131;-41
2021/03/15 03:09:12;;;;;;;5.97;3.20;;;23.30;44.20;;;;;;5070672;28;20432;-41
2021/03/15 03:11:39;;;;;;;6.18;3.95;;;23.30;44.20;;;;;;5071577;28;20055;-41
2021/03/15 03:14:09;;;;;;;4.88;3.58;;;23.30;44.20;;;;;;5070607;28;20053;-41
2021/03/15 03:16:41;;;;;;;4.28;3.28;;;23.30;44.20;;;;;;5071450;28;20045;-41
2021/03/15 03:19:18;;;;;;;4.50;3.50;;;23.30;44.20;;;;;;5070549;28;20041;-41
2021/03/15 03:21:46;;;;;;;5.43;3.67;;;23.30;44.20;;;;;;5071923;28;20040;-41
2021/03/15 03:24:14;;;;;;;5.22;3.80;;;23.30;44.20;;;;;;5070480;28;20044;-41
2021/03/15 03:26:43;;;;;;;5.50;3.80;;;23.30;44.20;;;;;;5069875;28;20139;-41
2021/03/15 03:29:13;;;;;;;6.13;3.60;;;23.30;44.20;;;;;;5072759;28;20079;-41
2021/03/15 03:31:45;;;;;;;4.53;3.47;;;23.30;44.20;;;;;;5069058;28;20047;-41
2021/03/15 03:34:14;;;;;;;4.53;3.40;;;23.30;44.20;;;;;;5054642;28;20052;-42
2021/03/15 03:36:41;;;;;;;4.32;2.97;;;23.30;44.20;;;;;;5072034;28;20052;-41
2021/03/15 03:39:10;;;;;;;4.22;3.35;;;23.20;44.10;;;;;;5070586;28;20044;-41
2021/03/15 03:41:38;;;;;;;4.70;3.58;;;23.30;44.20;;;;;;5070532;28;20045;-41
2021/03/15 03:44:09;;;;;;;4.75;3.35;;;23.30;44.20;;;;;;5071569;28;20044;-41
2021/03/15 03:46:36;;;;;;;4.68;3.50;;;23.20;44.70;;;;;;5071108;28;20127;-41
2021/03/15 03:49:05;;;;;;;4.43;3.03;;;23.20;44.10;;;;;;5071397;28;20131;-41
2021/03/15 03:51:43;;;;;;;4.18;3.40;;;23.30;44.20;;;;;;5068230;28;20075;-41
2021/03/15 03:54:17;;;;;;;5.47;3.83;;;23.20;44.10;;;;;;5070554;28;20044;-41
2021/03/15 03:56:55;;;;;;;4.50;3.55;;;23.20;44.10;;;;;;5071295;28;20043;-41
2021/03/15 03:59:24;;;;;;;3.95;3.20;;;23.20;44.10;;;;;;5069897;28;20051;-41
2021/03/15 04:01:53;;;;;;;4.80;3.58;;;23.30;44.20;;;;;;5070992;28;20045;-41
2021/03/15 04:04:23;;;;;;;4.82;3.28;;;23.20;44.10;;;;;;5071242;28;20048;-40
2021/03/15 04:06:51;;;;;;;4.47;3.20;;;23.20;44.10;;;;;;5070334;28;20072;-41
2021/03/15 04:09:32;;;;;;;3.88;3.30;;;23.20;44.10;;;;;;5052986;28;20053;-42
2021/03/15 04:12:11;;;;;;;4.43;3.10;;;23.20;44.10;;;;;;5067739;28;20061;-43
2021/03/15 04:14:50;;;;;;;4.50;3.80;;;23.20;44.10;;;;;;5072472;28;20409;-43
2021/03/15 04:17:21;;;;;;;5.03;3.20;;;23.20;44.10;;;;;;5071491;28;20044;-41
2021/03/15 04:19:59;;;;;;;4.82;3.40;;;23.20;44.10;;;;;;5071071;28;20044;-41
2021/03/15 04:22:29;;;;;;;4.88;3.22;;;23.20;44.10;;;;;;5071420;28;20048;-42
2021/03/15 04:25:01;;;;;;;4.82;3.25;;;23.20;44.10;;;;;;5070440;28;20043;-42
2021/03/15 04:27:31;;;;;;;5.88;3.42;;;23.20;44.10;;;;;;5069546;28;20079;-42
2021/03/15 04:29:59;;;;;;;4.40;3.30;;;23.20;44.10;;;;;;5069773;28;20056;-41
2021/03/15 04:32:27;;;;;;;4.70;3.50;;;23.20;44.10;;;;;;5068360;28;20433;-41
2021/03/15 04:34:54;;;;;;;4.57;3.22;;;23.20;44.10;;;;;;5069861;28;20048;-43
2021/03/15 04:37:23;;;;;;;4.03;3.25;;;23.20;44.10;;;;;;5070844;28;20070;-41
2021/03/15 04:39:50;;;;;;;4.90;3.25;;;23.20;44.10;;;;;;5072246;28;20075;-46
2021/03/15 04:42:18;;;;;;;4.18;3.38;;;23.20;44.10;;;;;;5070725;28;20041;-43
2021/03/15 04:44:45;;;;;;;5.38;3.30;;;23.20;44.10;;;;;;5073286;28;20047;-46
2021/03/15 04:47:13;;;;;;;4.13;3.10;;;23.20;44.10;;;;;;5073971;28;20051;-43
2021/03/15 04:49:41;;;;;;;4.25;2.95;;;23.20;44.10;;;;;;5072416;28;20500;-42
2021/03/15 04:52:12;;;;;;;5.22;3.20;;;23.20;44.10;;;;;;5074831;28;20122;-45
2021/03/15 04:54:38;;;;;;;3.88;3.17;;;23.20;44.10;;;;;;5105786;28;20064;-42
2021/03/15 04:57:07;;;;;;;4.50;3.20;;;23.20;44.10;;;;;;5074617;28;20055;-42
2021/03/15 04:59:35;;;;;;;3.42;2.60;;;23.20;44.10;;;;;;5074441;28;20105;-42
2021/03/15 05:02:02;;;;;;;3.70;2.88;;;23.20;44.10;;;;;;5073121;28;20244;-43
2021/03/15 05:04:31;;;;;;;4.07;2.97;;;23.20;44.10;;;;;;5075161;28;20132;-41
2021/03/15 05:06:59;;;;;;;4.88;3.05;;;23.20;44.10;;;;;;5072781;28;20049;-43
2021/03/15 05:09:38;;;;;;;4.30;3.22;;;23.20;44.10;;;;;;5073944;28;20056;-41
2021/03/15 05:12:09;;;;;;;5.07;3.30;;;23.20;44.10;;;;;;5072693;28;20540;-41
2021/03/15 05:14:36;;;;;;;4.10;3.10;;;23.20;44.10;;;;;;5072509;28;20052;-44
2021/03/15 05:17:03;;;;;;;3.67;2.88;;;23.20;44.10;;;;;;5073727;28;20500;-41
2021/03/15 05:19:32;;;;;;;3.88;2.97;;;23.20;44.10;;;;;;5072680;28;20048;-44
2021/03/15 05:21:59;;;;;;;3.22;2.88;;;23.20;44.10;;;;;;5073886;28;20492;-41
2021/03/15 05:24:27;;;;;;;4.10;3.13;;;23.20;44.10;;;;;;5074056;28;20048;-44
2021/03/15 05:26:54;;;;;;;3.55;3.08;;;23.20;44.10;;;;;;5073384;28;20091;-42
2021/03/15 05:29:24;;;;;;;3.72;3.15;;;23.20;44.10;;;;;;5072043;28;20435;-41
2021/03/15 05:31:51;;;;;;;3.95;2.83;;;23.20;44.10;;;;;;5072338;28;20135;-42
2021/03/15 05:34:22;;;;;;;5.03;3.20;;;23.20;44.10;;;;;;5075114;28;20392;-41
2021/03/15 05:36:51;;;;;;;4.30;2.95;;;23.20;44.10;;;;;;5072531;28;20131;-42
2021/03/15 05:39:17;;;;;;;4.28;2.85;;;23.20;44.00;;;;;;5075005;28;20495;-42
2021/03/15 05:41:55;;;;;;;4.57;3.13;;;23.20;44.00;;;;;;5070809;28;20045;-48
2021/03/15 05:44:54;;;;;;;3.65;2.95;;;23.20;44.10;;;;;;5071904;28;20418;-42
2021/03/15 05:47:57;;;;;;;4.35;3.10;;;23.20;44.10;;;;;;5073333;28;20041;-40
2021/03/15 05:50:42;;;;;;;4.03;3.15;;;23.10;44.00;;;;;;5072045;28;20056;-40
2021/03/15 05:53:33;;;;;;;3.65;2.80;;;23.20;44.10;;;;;;5072797;28;20092;-40
2021/03/15 05:56:23;;;;;;;3.22;2.67;;;23.10;44.00;;;;;;5072997;28;20045;-40
2021/03/15 05:59:07;;;;;;;4.63;3.00;;;23.10;44.00;;;;;;5073340;28;20045;-41
2021/03/15 06:02:18;;;;;;;4.15;2.70;;;23.10;44.00;;;;;;5073543;28;20048;-46
2021/03/15 06:05:14;;;;;;;2.95;2.42;;;23.10;44.00;;;;;;5061354;28;20419;-40
2021/03/15 06:07:45;;;;;;;3.05;2.50;;;23.10;44.00;;;;;;5072117;28;20084;-40
2021/03/15 06:10:34;;;;;;;3.80;2.70;;;23.10;44.00;;;;;;5072881;28;20131;-41
2021/03/15 06:13:10;;;;;;;3.75;2.70;;;23.10;44.00;;;;;;5104233;28;20049;-41
2021/03/15 06:15:42;;;;;;;4.15;2.67;;;23.10;44.00;;;;;;5072717;28;20504;-41
2021/03/15 06:18:13;;;;;;;3.00;2.50;;;23.10;44.00;;;;;;5070373;28;20044;-41
2021/03/15 06:20:45;;;;;;;3.58;2.97;;;23.10;44.00;;;;;;5072725;28;20113;-41
2021/03/15 06:23:16;;;;;;;3.55;2.75;;;23.10;44.00;;;;;;5070311;28;20051;-42
2021/03/15 06:25:46;;;;;;;3.28;2.70;;;23.10;44.30;;;;;;5071502;28;20127;-41
2021/03/15 06:28:14;;;;;;;2.95;2.65;;;23.10;44.00;;;;;;5072010;28;20059;-40
2021/03/15 06:30:41;;;;;;;4.18;3.08;;;23.10;44.00;;;;;;5071847;28;20076;-44
2021/03/15 06:33:09;;;;;;;4.35;3.00;;;23.10;43.90;;;;;;5072307;28;20048;-40
2021/03/15 06:35:37;;;;;;;4.68;3.10;;;23.20;44.00;;;;;;5071315;28;20051;-42
2021/03/15 06:38:05;;;;;;;2.88;2.58;;;23.20;44.00;;;;;;5071047;28;20045;-44
2021/03/15 06:40:43;;;;;;;3.40;2.50;;;23.10;43.90;;;;;;5071102;28;20508;-47
2021/03/15 06:43:16;;;;;;;3.22;2.53;;;23.10;43.90;;;;;;5055008;28;20157;-40
2021/03/15 06:45:51;;;;;;;4.45;2.78;;;23.20;44.10;;;;;;5071972;28;20056;-42
2021/03/15 06:48:22;;;;;;;3.45;2.63;;;23.20;44.10;;;;;;5071320;28;20119;-41
2021/03/15 06:50:50;;;;;;;3.78;2.70;;;23.20;44.10;;;;;;5072336;28;20045;-40
2021/03/15 06:53:18;;;;;;;2.97;2.50;;;23.20;44.10;;;;;;5070810;28;20052;-40
2021/03/15 06:55:50;;;;;;;3.42;2.67;;;23.20;44.20;;;;;;5070234;28;20500;-41
2021/03/15 06:58:26;;;;;;;2.53;2.13;;;23.20;44.20;;;;;;5072139;28;20047;-40
2021/03/15 07:01:13;;;;;;;3.10;2.45;;;23.20;44.20;;;;;;5070276;28;20058;-42
2021/03/15 07:03:41;;;;;;;3.13;2.70;;;23.20;44.20;;;;;;5070589;28;20048;-42
2021/03/15 07:06:10;;;;;;;3.42;2.42;;;23.20;44.20;;;;;;5071792;28;20044;-45
2021/03/15 07:08:37;;;;;;;3.58;2.78;;;23.20;44.20;;;;;;5071495;28;20505;-43
2021/03/15 07:11:27;;;;;;;3.92;2.63;;;23.20;44.20;;;;;;5071604;28;20044;-41
2021/03/15 07:13:54;;;;;;;4.53;2.70;;;23.20;44.20;;;;;;5070444;28;20047;-42
2021/03/15 07:16:32;;;;;;;5.80;2.65;;;23.20;44.30;;;;;;5070644;28;20098;-40
2021/03/15 07:19:03;;;;;;;5.78;3.00;;;23.20;44.30;;;;;;5071822;28;20056;-42
2021/03/15 07:21:39;;;;;;;3.90;2.55;;;23.20;44.30;;;;;;5070572;28;20048;-46
2021/03/15 07:24:12;;;;;;;4.53;2.53;;;23.20;44.40;;;;;;5072485;28;20146;-43
2021/03/15 07:26:46;;;;;;;5.85;2.72;;;23.30;44.50;;;;;;5054478;28;20942;-46
2021/03/15 07:29:15;;;;;;;3.42;2.70;;;23.20;44.40;;;;;;5069925;28;20068;-44
2021/03/15 07:31:49;;;;;;;6.20;2.88;;;23.20;44.50;;;;;;5062355;28;20048;-42
2021/03/15 07:34:20;;;;;;;4.78;2.90;;;23.30;44.60;;;;;;5072467;28;20052;-43
2021/03/15 07:36:50;;;;;;;5.35;2.75;;;23.30;44.70;;;;;;5069763;28;20044;-42
2021/03/15 07:39:18;;;;;;;3.25;2.40;;;23.30;44.70;;;;;;5070008;28;20053;-47
2021/03/15 07:41:47;;;;;;;2.95;2.42;;;23.30;44.70;;;;;;5071314;28;20044;-43
2021/03/15 07:44:44;;;;;;;4.90;2.92;;;23.30;44.70;;;;;;5071448;28;20051;-44
2021/03/15 07:47:10;;;;;;;3.08;2.28;;;23.30;44.70;;;;;;5050109;28;20152;-42
2021/03/15 07:49:41;;;;;;;3.95;2.60;;;23.30;44.80;;;;;;5049968;28;20484;-44
2021/03/15 07:52:08;;;;;;;5.00;2.90;;;23.40;45.00;;;;;;5047674;28;20049;-44
2021/03/15 07:54:44;;;;;;;4.68;2.65;;;23.30;45.00;;;;;;5049970;28;20052;-41
2021/03/15 07:57:15;;;;;;;4.18;2.40;;;23.30;45.00;;;;;;5049824;28;20053;-43
2021/03/15 07:59:44;;;;;;;3.00;2.25;;;23.30;45.10;;;;;;5049787;28;20044;-44
2021/03/15 08:02:17;;;;;;;4.53;2.97;;;23.30;45.10;;;;;;5048655;28;20463;-43
2021/03/15 08:04:44;;;;;;;3.05;2.50;;;23.30;45.20;;;;;;5050116;28;20414;-43
2021/03/15 08:07:13;;;;;;;3.95;2.63;;;23.30;45.20;;;;;;5049948;28;20459;-42
2021/03/15 08:09:48;;;;;;;4.13;2.53;;;23.30;45.30;;;;;;5048759;28;20087;-42
2021/03/15 08:12:16;;;;;;;2.80;2.17;;;23.40;45.50;;;;;;5049965;28;20055;-42
2021/03/15 08:14:46;;;;;;;5.32;2.33;;;23.30;45.60;;;;;;5048191;28;20059;-42
2021/03/15 08:17:21;;;;;;;5.05;2.50;;;23.40;45.70;;;;;;5049947;28;20048;-41
2021/03/15 08:19:49;;;;;;;3.17;2.35;;;23.40;45.80;;;;;;5051599;28;20044;-42
2021/03/15 08:22:31;;;;;;;5.45;2.50;;;23.40;45.80;;;;;;5050571;28;20440;-43
2021/03/15 08:24:59;;;;;;;3.17;2.47;;;23.40;45.80;;;;;;5071381;28;20043;-41
2021/03/15 08:27:31;;;;;;;5.65;2.50;;;23.40;45.80;;;;;;5074138;28;20060;-41
2021/03/15 08:30:01;;;;;;;3.13;2.45;;;23.40;45.90;;;;;;5073417;28;20048;-43
2021/03/15 08:32:32;;;;;;;5.03;2.50;;;23.40;46.00;;;;;;5073184;28;20063;-41
2021/03/15 08:34:59;;;;;;;4.15;2.90;;;23.40;46.00;;;;;;5073155;28;20052;-41
2021/03/15 08:38:05;;;;;;;4.15;2.47;;;23.40;46.00;;;;;;5073211;28;20111;-41
2021/03/15 08:40:47;;;;;;;4.25;2.33;;;23.40;46.00;;;;;;5051626;28;20092;-41
2021/03/15 08:43:17;;;;;;;3.33;2.63;;;23.40;46.00;;;;;;5053438;28;20092;-42
2021/03/15 08:45:54;;;;;;;3.70;2.13;;;23.40;46.00;;;;;;5053114;28;20047;-44
2021/03/15 08:48:33;;;;;;;4.78;2.42;;;23.40;46.00;;;;;;5053026;28;20135;-42
2021/03/15 08:51:05;;;;;;;5.00;2.33;;;23.40;46.00;;;;;;5051775;28;20095;-42
2021/03/15 08:53:42;;;;;;;6.00;3.08;;;23.50;46.00;;;;;;5053169;28;20049;-42
2021/03/15 08:56:18;;;;;;;5.05;2.97;;;23.40;46.00;;;;;;5053190;28;20420;-41
2021/03/15 08:58:52;;;;;;;5.22;3.15;;;23.40;46.00;;;;;;5053320;28;20049;-41
2021/03/15 09:01:24;;;;;;;5.03;3.08;;;23.40;45.90;;;;;;5053004;28;20049;-42
2021/03/15 09:04:04;;;;;;;6.38;3.60;;;23.40;45.90;;;;;;5052752;28;20043;-41
2021/03/15 09:06:36;;;;;;;5.57;3.40;;;23.50;46.00;;;;;;5052855;28;20511;-41
2021/03/15 09:09:12;;;;;;;6.53;4.07;;;23.40;45.90;;;;;;5035948;28;20503;-41
2021/03/15 09:11:42;;;;;;;7.10;4.43;;;23.50;45.90;;;;;;5051786;28;20052;-41
2021/03/15 09:14:18;;;;;;;9.43;5.03;;;23.50;46.00;;;;;;5052339;28;20049;-43
2021/03/15 09:16:59;;;;;;;9.02;5.32;;;23.50;45.90;;;;;;5074250;28;20052;-43
2021/03/15 09:19:30;;;;;;;9.93;5.75;;;23.50;45.90;;;;;;5073720;28;20079;-41
2021/03/15 09:21:57;;;;;;;16.23;6.32;;;23.50;45.90;;;;;;5074056;28;20446;-41
2021/03/15 09:24:49;;;;;;;11.40;6.50;;;23.50;45.90;;;;;;5072561;28;20041;-41
2021/03/15 09:27:30;;;;;;;13.60;7.40;;;23.50;45.90;;;;;;5073011;28;20135;-41
2021/03/15 09:29:59;;;;;;;16.48;7.72;;;23.50;45.90;;;;;;5074237;28;20049;-43
2021/03/15 09:32:35;;;;;;;12.95;7.45;;;23.50;45.90;;;;;;5071163;28;20052;-41
2021/03/15 09:35:22;;;;;;;17.60;8.10;;;23.50;45.90;;;;;;5075046;28;20071;-44
2021/03/15 09:37:58;;;;;;;15.32;8.82;;;23.50;46.50;;;;;;5072518;28;20048;-41
2021/03/15 09:40:39;;;;;;;16.05;8.43;;;23.50;46.00;;;;;;5074577;28;20044;-42
2021/03/15 09:43:26;;;;;;;16.15;9.35;;;23.50;46.00;;;;;;5073156;28;20101;-41
2021/03/15 09:46:00;;;;;;;15.65;9.48;;;23.50;46.00;;;;;;5072669;28;20121;-46
2021/03/15 09:48:29;;;;;;;18.98;10.10;;;23.50;46.00;;;;;;5070872;28;20052;-47
2021/03/15 09:51:01;;;;;;;19.38;10.80;;;23.50;46.00;;;;;;5072931;28;20409;-48
2021/03/15 09:53:28;;;;;;;18.95;11.02;;;23.50;46.00;;;;;;5073969;28;20094;-42
2021/03/15 09:56:03;;;;;;;20.88;11.77;;;23.50;46.60;;;;;;5071284;28;20056;-42
2021/03/15 09:58:30;;;;;;;22.73;11.65;;;23.50;46.00;;;;;;5073135;28;20412;-47
2021/03/15 10:00:57;;;;;;;22.95;11.15;;;23.50;45.90;;;;;;5071731;28;20614;-47
2021/03/15 10:03:26;;;;;;;20.70;11.50;;;23.50;45.90;;;;;;5072695;28;20049;-43
2021/03/15 10:05:55;;;;;;;19.13;11.25;;;23.50;45.90;;;;;;5071857;28;20488;-44
2021/03/15 10:08:26;;;;;;;22.60;12.27;;;23.50;45.90;;;;;;5054621;28;20056;-44
2021/03/15 10:10:53;;;;;;;21.25;11.90;;;23.50;45.90;;;;;;5073544;28;20049;-44
2021/03/15 10:13:19;;;;;;;23.08;13.05;;;23.50;45.80;;;;;;5073204;28;20048;-42
2021/03/15 10:15:46;;;;;;;22.58;12.50;;;23.50;45.80;;;;;;5072618;28;20076;-42
2021/03/15 10:18:17;;;;;;;22.73;12.05;;;23.50;45.80;;;;;;5072900;28;20056;-47
2021/03/15 10:20:45;;;;;;;24.35;12.88;;;23.50;46.40;;;;;;5072404;28;20408;-42
2021/03/15 10:23:16;;;;;;;24.25;13.55;;;23.50;45.80;;;;;;5073200;28;20128;-42
2021/03/15 10:25:56;;;;;;;25.25;13.65;;;23.50;45.80;;;;;;5071070;28;20504;-44
2021/03/15 10:28:25;;;;;;;24.63;13.35;;;23.50;45.70;;;;;;5071841;28;20577;-42
2021/03/15 10:31:12;;;;;;;23.13;13.48;;;23.50;45.70;;;;;;5069622;28;20049;-41
2021/03/15 10:33:49;;;;;;;22.67;12.75;;;23.50;45.70;;;;;;5073793;28;20470;-47
2021/03/15 10:36:21;;;;;;;22.00;13.00;;;23.50;45.70;;;;;;5071115;28;20056;-42
2021/03/15 10:38:48;;;;;;;28.17;13.05;;;23.50;45.70;;;;;;5072427;28;20086;-43
2021/03/15 10:41:16;;;;;;;24.38;13.40;;;23.50;45.60;;;;;;5071483;28;20503;-46
2021/03/15 10:43:46;;;;;;;24.55;13.95;;;23.50;45.60;;;;;;5071018;28;20049;-42
2021/03/15 10:46:18;;;;;;;26.52;13.82;;;23.50;45.60;;;;;;5054137;28;20506;-41
2021/03/15 10:48:46;;;;;;;26.13;13.95;;;23.50;45.60;;;;;;5072743;28;20075;-42
2021/03/15 10:51:13;;;;;;;25.35;14.35;;;23.50;45.60;;;;;;5071937;28;20061;-41
2021/03/15 10:53:58;;;;;;;28.77;14.23;;;23.50;45.60;;;;;;5070933;28;20127;-42
2021/03/15 10:56:30;;;;;;;27.42;15.38;;;23.50;46.20;;;;;;5071574;28;20106;-41
2021/03/15 10:58:57;;;;;;;25.85;14.45;;;23.50;45.60;;;;;;5070823;28;20040;-41
2021/03/15 11:01:25;;;;;;;26.58;14.05;;;23.50;45.60;;;;;;5073086;28;20048;-41
2021/03/15 11:03:54;;;;;;;26.23;14.10;;;23.50;45.60;;;;;;5070860;28;20067;-42
2021/03/15 11:06:28;;;;;;;26.20;14.38;;;23.50;45.60;;;;;;5071937;28;20052;-41
2021/03/15 11:08:56;;;;;;;26.52;14.25;;;23.60;45.70;;;;;;5071571;28;20488;-41
2021/03/15 11:11:25;;;;;;;26.58;14.40;;;23.60;45.70;;;;;;5050415;28;20052;-42
2021/03/15 11:13:57;;;;;;;27.73;14.00;;;23.50;45.60;;;;;;5060008;28;20050;-42
2021/03/15 11:16:29;;;;;;;26.40;14.73;;;23.50;45.60;;;;;;5070501;28;20454;-42
2021/03/15 11:19:12;;;;;;;25.87;13.50;;;23.50;45.60;;;;;;5071778;28;20045;-43
2021/03/15 11:21:41;;;;;;;23.23;13.57;;;23.50;45.60;;;;;;5072638;28;20094;-41
2021/03/15 11:24:09;;;;;;;27.30;14.95;;;23.50;45.60;;;;;;5070795;28;20048;-42
2021/03/15 11:26:47;;;;;;;25.40;14.35;;;23.50;45.60;;;;;;5071566;28;20056;-41
2021/03/15 11:29:14;;;;;;;27.23;14.77;;;23.50;45.60;;;;;;5071750;28;20048;-43
2021/03/15 11:31:52;;;;;;;26.73;14.73;;;23.50;45.60;;;;;;5069547;28;20048;-41
2021/03/15 11:34:21;;;;;;;25.25;14.75;;;23.60;45.70;;;;;;5071317;28;20126;-41
2021/03/15 11:36:49;;;;;;;27.25;14.50;;;23.50;45.60;;;;;;5071685;28;20048;-41
2021/03/15 11:39:17;;;;;;;29.15;15.02;;;23.50;45.60;;;;;;5071684;28;20139;-42
2021/03/15 11:41:45;;;;;;;23.77;14.25;;;23.60;45.60;;;;;;5071725;28;20059;-44
2021/03/15 11:44:13;;;;;;;28.70;15.18;;;23.60;45.70;;;;;;5070380;28;20106;-41
2021/03/15 11:46:40;;;;;;;27.08;15.15;;;23.60;45.60;;;;;;5071006;28;20041;-41
2021/03/15 11:49:07;;;;;;;21.83;13.68;;;23.60;45.60;;;;;;5071642;28;20513;-41
2021/03/15 11:51:34;;;;;;;28.80;15.23;;;23.60;45.60;;;;;;5071797;28;20049;-42
2021/03/15 11:54:01;;;;;;;29.73;14.63;;;23.50;45.60;;;;;;5075128;28;20472;-41
2021/03/15 11:56:28;;;;;;;25.52;15.00;;;23.60;45.60;;;;;;5075395;28;20098;-41
2021/03/15 11:58:55;;;;;;;25.60;14.40;;;23.60;45.60;;;;;;5075615;28;20045;-43
2021/03/15 12:01:21;;;;;;;26.58;15.75;;;23.50;45.50;;;;;;5074113;28;20041;-41
2021/03/15 12:03:48;;;;;;;24.75;14.32;;;23.60;45.60;;;;;;5073786;28;20078;-44
2021/03/15 12:06:16;;;;;;;31.77;15.05;;;23.60;45.60;;;;;;5075607;28;20051;-41
2021/03/15 12:08:44;;;;;;;23.20;13.60;;;23.60;45.60;;;;;;5074999;28;20088;-45
2021/03/15 12:11:10;;;;;;;26.23;14.88;;;23.60;45.60;;;;;;5075117;28;20189;-44
2021/03/15 12:13:37;;;;;;;27.45;14.75;;;23.60;45.60;;;;;;5076201;28;20048;-41
2021/03/15 12:16:04;;;;;;;26.90;15.40;;;23.60;45.60;;;;;;5076281;28;20056;-41
2021/03/15 12:18:31;;;;;;;24.48;13.18;;;23.60;45.60;;;;;;5076204;28;20087;-42
2021/03/15 12:20:57;;;;;;;25.27;14.55;;;23.60;45.60;;;;;;5075056;28;20037;-43
2021/03/15 12:23:24;;;;;;;26.05;14.25;;;23.60;45.60;;;;;;5075053;28;20044;-42
2021/03/15 12:25:52;;;;;;;26.02;14.43;;;23.60;45.60;;;;;;5075239;28;20382;-42
2021/03/15 12:28:20;;;;;;;28.75;14.70;;;23.60;45.60;;;;;;5073569;28;20132;-43
2021/03/15 12:30:48;;;;;;;29.05;16.23;;;23.60;45.60;;;;;;5072207;28;20447;-42
2021/03/15 12:33:15;;;;;;;27.75;14.85;;;23.60;45.60;;;;;;5073527;28;20052;-42
2021/03/15 12:35:43;;;;;;;26.45;14.20;;;23.60;45.60;;;;;;5074733;28;20143;-42
2021/03/15 12:38:09;;;;;;;26.27;14.30;;;23.60;45.60;;;;;;5074680;28;20056;-42
2021/03/15 12:40:36;;;;;;;23.67;13.93;;;23.60;45.60;;;;;;5074793;28;20048;-41
2021/03/15 12:43:04;;;;;;;25.98;14.20;;;23.60;45.60;;;;;;5074877;28;20125;-41
2021/03/15 12:45:39;;;;;;;26.80;14.55;;;23.60;45.60;;;;;;5074570;28;20037;-42
2021/03/15 12:48:07;;;;;;;24.98;14.55;;;23.60;45.60;;;;;;5073407;28;20491;-44
2021/03/15 12:50:36;;;;;;;25.15;13.55;;;23.60;45.50;;;;;;5074385;28;20048;-46
2021/03/15 12:53:02;;;;;;;25.30;14.52;;;23.60;45.60;;;;;;5073390;28;20094;-42
2021/03/15 12:55:29;;;;;;;28.52;14.48;;;23.60;45.50;;;;;;5086590;28;20115;-44
2021/03/15 12:57:56;;;;;;;23.92;14.20;;;23.60;45.50;;;;;;5072266;28;20048;-43
2021/03/15 13:00:23;;;;;;;26.17;14.13;;;23.60;45.50;;;;;;5072825;28;20040;-45
2021/03/15 13:02:50;;;;;;;25.25;14.52;;;23.60;45.50;;;;;;5074025;28;20045;-47